sensor_id;sensor_type;location;lat;lon;timestamp;P1;durP1;ratioP1;P2;durP2;ratioP2
23494;SDS011;26107;50.832;2.950;2023-05-25T00:06:37;17.40;;;3.13;;
23494;SDS011;26107;50.832;2.950;2023-05-25T00:21:40;14.32;;;4.53;;
23494;SDS011;26107;50.832;2.950;2023-05-25T00:36:41;15.43;;;4.23;;
23494;SDS011;26107;50.832;2.950;2023-05-25T00:51:48;10.80;;;4.65;;
23494;SDS011;26107;50.832;2.950;2023-05-25T01:06:50;12.55;;;4.25;;
23494;SDS011;26107;50.832;2.950;2023-05-25T01:37:05;11.23;;;5.28;;
23494;SDS011;26107;50.832;2.950;2023-05-25T01:52:20;13.15;;;5.15;;
23494;SDS011;26107;50.832;2.950;2023-05-25T02:07:24;17.33;;;5.88;;
23494;SDS011;26107;50.832;2.950;2023-05-25T02:22:24;15.80;;;5.90;;
23494;SDS011;26107;50.832;2.950;2023-05-25T02:37:25;18.98;;;6.50;;
23494;SDS011;26107;50.832;2.950;2023-05-25T02:52:25;14.98;;;5.80;;
23494;SDS011;26107;50.832;2.950;2023-05-25T03:07:26;13.50;;;5.82;;
23494;SDS011;26107;50.832;2.950;2023-05-25T03:22:27;16.17;;;6.38;;
23494;SDS011;26107;50.832;2.950;2023-05-25T03:37:27;20.42;;;6.88;;
23494;SDS011;26107;50.832;2.950;2023-05-25T03:52:28;20.60;;;6.30;;
23494;SDS011;26107;50.832;2.950;2023-05-25T04:07:28;14.90;;;6.35;;
23494;SDS011;26107;50.832;2.950;2023-05-25T04:22:30;16.42;;;6.55;;
23494;SDS011;26107;50.832;2.950;2023-05-25T04:37:32;18.95;;;7.10;;
23494;SDS011;26107;50.832;2.950;2023-05-25T04:52:35;18.05;;;6.43;;
23494;SDS011;26107;50.832;2.950;2023-05-25T05:07:36;14.82;;;6.45;;
23494;SDS011;26107;50.832;2.950;2023-05-25T05:22:37;12.80;;;5.50;;
23494;SDS011;26107;50.832;2.950;2023-05-25T05:37:37;11.30;;;5.47;;
23494;SDS011;26107;50.832;2.950;2023-05-25T05:52:38;15.48;;;6.93;;
23494;SDS011;26107;50.832;2.950;2023-05-25T06:07:39;16.27;;;7.50;;
23494;SDS011;26107;50.832;2.950;2023-05-25T06:22:40;12.93;;;6.53;;
23494;SDS011;26107;50.832;2.950;2023-05-25T06:37:40;14.85;;;5.32;;
23494;SDS011;26107;50.832;2.950;2023-05-25T06:52:41;15.25;;;6.15;;
23494;SDS011;26107;50.832;2.950;2023-05-25T07:07:42;19.27;;;5.32;;
23494;SDS011;26107;50.832;2.950;2023-05-25T07:22:42;9.60;;;5.43;;
23494;SDS011;26107;50.832;2.950;2023-05-25T07:37:45;9.57;;;5.28;;
23494;SDS011;26107;50.832;2.950;2023-05-25T07:52:54;19.27;;;7.50;;
23494;SDS011;26107;50.832;2.950;2023-05-25T08:07:57;13.80;;;8.70;;
23494;SDS011;26107;50.832;2.950;2023-05-25T08:22:58;12.82;;;6.15;;
23494;SDS011;26107;50.832;2.950;2023-05-25T08:38:00;12.57;;;4.50;;
23494;SDS011;26107;50.832;2.950;2023-05-25T08:53:02;9.30;;;4.15;;
23494;SDS011;26107;50.832;2.950;2023-05-25T09:08:04;7.07;;;4.10;;
23494;SDS011;26107;50.832;2.950;2023-05-25T09:23:09;8.52;;;3.60;;
23494;SDS011;26107;50.832;2.950;2023-05-25T09:38:11;8.23;;;3.90;;
23494;SDS011;26107;50.832;2.950;2023-05-25T09:53:13;11.73;;;4.10;;
23494;SDS011;26107;50.832;2.950;2023-05-25T10:08:14;8.23;;;3.53;;
23494;SDS011;26107;50.832;2.950;2023-05-25T10:23:18;9.38;;;3.90;;
23494;SDS011;26107;50.832;2.950;2023-05-25T10:38:20;5.13;;;2.78;;
23494;SDS011;26107;50.832;2.950;2023-05-25T10:53:22;6.97;;;3.40;;
23494;SDS011;26107;50.832;2.950;2023-05-25T11:23:23;6.85;;;3.58;;
23494;SDS011;26107;50.832;2.950;2023-05-25T11:38:25;7.40;;;3.05;;
23494;SDS011;26107;50.832;2.950;2023-05-25T11:53:26;6.90;;;4.18;;
23494;SDS011;26107;50.832;2.950;2023-05-25T12:23:34;5.60;;;3.60;;
23494;SDS011;26107;50.832;2.950;2023-05-25T12:38:35;7.97;;;4.40;;
23494;SDS011;26107;50.832;2.950;2023-05-25T12:53:46;6.10;;;3.67;;
23494;SDS011;26107;50.832;2.950;2023-05-25T13:08:48;5.25;;;3.88;;
23494;SDS011;26107;50.832;2.950;2023-05-25T13:23:49;9.95;;;3.70;;
23494;SDS011;26107;50.832;2.950;2023-05-25T13:38:50;7.25;;;3.88;;
23494;SDS011;26107;50.832;2.950;2023-05-25T13:53:50;8.85;;;4.95;;
23494;SDS011;26107;50.832;2.950;2023-05-25T14:08:52;10.38;;;5.50;;
23494;SDS011;26107;50.832;2.950;2023-05-25T14:23:53;8.25;;;4.97;;
23494;SDS011;26107;50.832;2.950;2023-05-25T14:38:53;14.75;;;6.25;;
23494;SDS011;26107;50.832;2.950;2023-05-25T14:53:54;15.80;;;7.35;;
23494;SDS011;26107;50.832;2.950;2023-05-25T15:08:54;9.90;;;6.35;;
23494;SDS011;26107;50.832;2.950;2023-05-25T15:23:55;16.08;;;7.03;;
23494;SDS011;26107;50.832;2.950;2023-05-25T15:38:56;14.07;;;7.65;;
23494;SDS011;26107;50.832;2.950;2023-05-25T15:53:56;16.23;;;6.07;;
23494;SDS011;26107;50.832;2.950;2023-05-25T16:08:57;9.75;;;5.63;;
23494;SDS011;26107;50.832;2.950;2023-05-25T16:23:57;11.13;;;4.53;;
23494;SDS011;26107;50.832;2.950;2023-05-25T16:38:58;14.60;;;4.78;;
23494;SDS011;26107;50.832;2.950;2023-05-25T16:53:59;9.23;;;4.32;;
23494;SDS011;26107;50.832;2.950;2023-05-25T17:08:59;14.50;;;4.70;;
23494;SDS011;26107;50.832;2.950;2023-05-25T17:24:00;14.07;;;4.07;;
23494;SDS011;26107;50.832;2.950;2023-05-25T17:39:01;11.85;;;4.00;;
23494;SDS011;26107;50.832;2.950;2023-05-25T17:54:02;13.23;;;3.75;;
23494;SDS011;26107;50.832;2.950;2023-05-25T18:09:02;13.68;;;3.40;;
23494;SDS011;26107;50.832;2.950;2023-05-25T18:24:03;15.95;;;3.70;;
23494;SDS011;26107;50.832;2.950;2023-05-25T18:39:06;21.35;;;3.85;;
23494;SDS011;26107;50.832;2.950;2023-05-25T18:54:07;12.10;;;3.28;;
23494;SDS011;26107;50.832;2.950;2023-05-25T19:09:07;11.13;;;3.00;;
23494;SDS011;26107;50.832;2.950;2023-05-25T19:39:09;12.63;;;3.42;;
23494;SDS011;26107;50.832;2.950;2023-05-25T19:54:09;16.38;;;3.83;;
23494;SDS011;26107;50.832;2.950;2023-05-25T20:09:10;16.08;;;4.72;;
23494;SDS011;26107;50.832;2.950;2023-05-25T20:24:13;22.85;;;4.47;;
23494;SDS011;26107;50.832;2.950;2023-05-25T20:39:13;24.65;;;4.72;;
23494;SDS011;26107;50.832;2.950;2023-05-25T20:54:15;23.98;;;4.40;;
23494;SDS011;26107;50.832;2.950;2023-05-25T21:09:16;28.05;;;5.18;;
23494;SDS011;26107;50.832;2.950;2023-05-25T21:24:17;23.85;;;4.93;;
23494;SDS011;26107;50.832;2.950;2023-05-25T21:39:17;20.45;;;4.38;;
23494;SDS011;26107;50.832;2.950;2023-05-25T21:54:18;22.00;;;4.55;;
23494;SDS011;26107;50.832;2.950;2023-05-25T22:09:19;24.70;;;5.15;;
23494;SDS011;26107;50.832;2.950;2023-05-25T22:24:19;23.38;;;5.80;;
23494;SDS011;26107;50.832;2.950;2023-05-25T22:39:20;21.52;;;5.32;;
23494;SDS011;26107;50.832;2.950;2023-05-25T22:54:20;20.00;;;4.97;;
23494;SDS011;26107;50.832;2.950;2023-05-25T23:09:21;29.10;;;5.57;;
23494;SDS011;26107;50.832;2.950;2023-05-25T23:24:22;20.85;;;5.78;;
23494;SDS011;26107;50.832;2.950;2023-05-25T23:39:23;26.45;;;5.28;;
23494;SDS011;26107;50.832;2.950;2023-05-25T23:54:23;24.48;;;4.68;;
